createdAt,value
2023-05-03T00:00:14.802Z,99446.15
2023-05-03T00:03:32.773Z,99446.51
2023-05-03T00:06:50.996Z,99444.36
2023-05-03T00:10:07.719Z,99439.35
2023-05-03T00:13:23.923Z,99441.34
2023-05-03T00:16:43.555Z,99440.20
2023-05-03T00:20:05.697Z,99437.87
2023-05-03T00:23:22.755Z,99431.08
2023-05-03T00:26:39.196Z,99427.23
2023-05-03T00:29:57.851Z,99432.73
2023-05-03T00:33:14.026Z,99428.59
2023-05-03T00:36:30.068Z,99428.59
2023-05-03T00:39:46.531Z,99433.93
2023-05-03T00:43:03.555Z,99430.45
2023-05-03T00:46:20.803Z,99426.47
2023-05-03T00:49:37.286Z,99431.78
2023-05-03T00:52:53.804Z,99425.66
2023-05-03T00:56:14.324Z,99431.45
2023-05-03T00:59:33.260Z,99431.14
2023-05-03T01:02:52.999Z,99434.81
2023-05-03T01:06:17.176Z,99437.33
2023-05-03T01:09:40.523Z,99439.31
2023-05-03T01:13:05.173Z,99441.95
2023-05-03T01:16:29.542Z,99438.13
2023-05-03T01:19:49.915Z,99444.44
2023-05-03T01:23:14.636Z,99439.63
2023-05-03T01:26:34.338Z,99434.99
2023-05-03T01:29:50.640Z,99439.35
2023-05-03T01:33:13.976Z,99437.20
2023-05-03T01:36:36.250Z,99443.67
2023-05-03T01:39:57.921Z,99438.69
2023-05-03T01:43:14.970Z,99438.69
2023-05-03T01:46:31.863Z,99436.20
2023-05-03T01:49:53.303Z,99444.66
2023-05-03T01:53:09.750Z,99434.86
2023-05-03T01:56:26.884Z,99439.71
2023-05-03T01:59:43.333Z,99440.34
2023-05-03T02:02:59.858Z,99437.19
2023-05-03T02:06:17.030Z,99430.22
2023-05-03T02:09:34.382Z,99437.19
2023-05-03T02:12:51.184Z,99434.68
2023-05-03T02:16:07.626Z,99442.16
2023-05-03T02:19:23.923Z,99437.20
2023-05-03T02:22:40.367Z,99446.50
2023-05-03T02:25:56.694Z,99448.81
2023-05-03T02:29:13.031Z,99440.70
2023-05-03T02:32:30.040Z,99443.67
2023-05-03T02:35:46.381Z,99439.67
2023-05-03T02:39:02.622Z,99441.16
2023-05-03T02:42:18.991Z,99437.69
2023-05-03T02:45:35.751Z,99439.85
2023-05-03T02:48:52.763Z,99448.63
2023-05-03T02:52:09.630Z,99445.83
2023-05-03T02:55:26.312Z,99433.70
2023-05-03T02:58:42.968Z,99442.33
2023-05-03T03:01:59.823Z,99446.16
2023-05-03T03:05:17.501Z,99446.82
2023-05-03T03:08:35.607Z,99449.80
2023-05-03T03:11:52.693Z,99444.48
2023-05-03T03:15:10.112Z,99452.28
2023-05-03T03:18:26.646Z,99443.32
2023-05-03T03:21:43.148Z,99445.33
2023-05-03T03:25:00.511Z,99447.14
2023-05-03T03:28:16.820Z,99447.14
2023-05-03T03:31:33.910Z,99447.14
2023-05-03T03:34:50.999Z,99459.77
2023-05-03T03:38:07.617Z,99448.80
2023-05-03T03:41:24.578Z,99456.27
2023-05-03T03:44:41.819Z,99452.63
2023-05-03T03:47:59.076Z,99460.23
2023-05-03T03:51:15.792Z,99458.89
2023-05-03T03:54:33.786Z,99463.70
2023-05-03T03:57:50.991Z,99464.20
2023-05-03T04:01:08.177Z,99463.02
2023-05-03T04:04:25.534Z,99469.51
2023-05-03T04:07:42.893Z,99467.03
2023-05-03T04:10:59.528Z,99469.51
2023-05-03T04:14:15.812Z,99480.80
2023-05-03T04:17:35.889Z,99476.97
2023-05-03T04:20:55.030Z,99478.64
2023-05-03T04:24:15.333Z,99474.14
2023-05-03T04:27:32.430Z,99483.77
2023-05-03T04:30:50.831Z,99485.26
2023-05-03T04:34:10.862Z,99487.73
2023-05-03T04:37:28.412Z,99500.38
2023-05-03T04:40:44.700Z,99496.88
2023-05-03T04:44:01.381Z,99499.53
2023-05-03T04:47:19.062Z,99512.31
2023-05-03T04:50:35.563Z,99503.36
2023-05-03T04:53:52.419Z,99500.03
2023-05-03T04:57:11.297Z,99506.36
2023-05-03T05:00:28.363Z,99508.66
2023-05-03T05:03:46.527Z,99511.00
2023-05-03T05:07:04.818Z,99514.97
2023-05-03T05:10:22.646Z,99524.91
2023-05-03T05:13:39.504Z,99525.09
2023-05-03T05:16:56.087Z,99533.70
2023-05-03T05:20:17.002Z,99534.69
2023-05-03T05:23:35.529Z,99541.84
2023-05-03T05:26:53.548Z,99542.34
2023-05-03T05:30:10.583Z,99535.37
2023-05-03T05:33:29.230Z,99541.70
2023-05-03T05:36:46.584Z,99543.83
2023-05-03T05:40:06.237Z,99540.86
2023-05-03T05:43:22.408Z,99545.67
2023-05-03T05:46:38.880Z,99555.30
2023-05-03T05:49:56.196Z,99546.66
2023-05-03T05:53:12.766Z,99559.97
2023-05-03T05:56:30.932Z,99559.30
2023-05-03T05:59:47.356Z,99553.14
2023-05-03T06:03:03.853Z,99565.75
2023-05-03T06:06:20.758Z,99560.94
2023-05-03T06:09:37.075Z,99573.90
2023-05-03T06:12:53.975Z,99572.91
2023-05-03T06:16:12.655Z,99571.06
2023-05-03T06:19:29.470Z,99568.94
2023-05-03T06:22:46.444Z,99573.08
2023-05-03T06:26:03.082Z,99578.05
2023-05-03T06:29:19.595Z,99577.22
2023-05-03T06:32:37.697Z,99584.84
2023-05-03T06:35:55.394Z,99588.17
2023-05-03T06:39:12.393Z,99592.14
2023-05-03T06:42:28.782Z,99588.67
2023-05-03T06:45:56.938Z,99598.30
2023-05-03T06:49:13.654Z,99597.95
2023-05-03T06:52:30.211Z,99597.95
2023-05-03T06:55:46.934Z,99600.61
2023-05-03T06:59:03.569Z,99595.30
2023-05-03T07:02:20.239Z,99594.48
2023-05-03T07:05:36.586Z,99604.43
2023-05-03T07:08:52.870Z,99609.75
2023-05-03T07:12:11.245Z,99604.11
2023-05-03T07:15:27.901Z,99620.70
2023-05-03T07:18:45.875Z,99614.73
2023-05-03T07:22:04.157Z,99611.91
2023-05-03T07:25:20.923Z,99612.72
2023-05-03T07:28:38.549Z,99616.05
2023-05-03T07:31:55.307Z,99617.86
2023-05-03T07:35:13.150Z,99626.67
2023-05-03T07:38:29.447Z,99625.02
2023-05-03T07:41:45.850Z,99624.02
2023-05-03T07:45:02.408Z,99637.63
2023-05-03T07:48:18.789Z,99627.52
2023-05-03T07:51:35.417Z,99637.30
2023-05-03T07:54:53.564Z,99637.80
2023-05-03T07:58:11.720Z,99639.47
2023-05-03T08:01:28.213Z,99633.98
2023-05-03T08:04:47.146Z,99639.13
2023-05-03T08:08:04.884Z,99644.12
2023-05-03T08:11:21.400Z,99648.58
2023-05-03T08:14:38.096Z,99643.59
2023-05-03T08:17:55.296Z,99645.75
2023-05-03T08:21:13.743Z,99650.53
2023-05-03T08:24:33.321Z,99647.38
2023-05-03T08:27:54.511Z,99649.54
2023-05-03T08:31:11.134Z,99653.52
2023-05-03T08:34:28.024Z,99646.91
2023-05-03T08:37:50.846Z,99647.91
2023-05-03T08:41:18.166Z,99658.67
2023-05-03T08:44:51.901Z,99665.97
2023-05-03T08:48:08.712Z,99662.98
2023-05-03T08:51:28.639Z,99661.46
2023-05-03T08:54:48.032Z,99667.77
2023-05-03T08:58:05.504Z,99667.92
2023-05-03T09:01:22.072Z,99675.36
2023-05-03T09:04:43.712Z,99671.70
2023-05-03T09:08:14.366Z,99670.36
2023-05-03T09:11:37.322Z,99673.17
2023-05-03T09:14:54.364Z,99674.68
2023-05-03T09:18:24.268Z,99674.73
2023-05-03T09:21:40.982Z,99678.20
2023-05-03T09:25:05.022Z,99678.03
2023-05-03T09:28:22.293Z,99681.53
2023-05-03T09:31:43.105Z,99682.53
2023-05-03T09:35:05.728Z,99678.52
2023-05-03T09:38:33.435Z,99680.31
2023-05-03T09:41:50.028Z,99685.59
2023-05-03T09:45:09.436Z,99682.23
2023-05-03T09:48:32.358Z,99687.01
2023-05-03T09:51:50.349Z,99683.53
2023-05-03T09:55:17.742Z,99686.02
2023-05-03T09:58:36.420Z,99688.67
2023-05-03T10:01:53.922Z,99690.03
2023-05-03T10:05:12.326Z,99682.08
2023-05-03T10:08:34.294Z,99686.22
2023-05-03T10:11:54.117Z,99683.92
2023-05-03T10:15:14.306Z,99683.73
2023-05-03T10:18:34.614Z,99685.89
2023-05-03T10:22:04.895Z,99682.87
2023-05-03T10:25:22.393Z,99676.03
2023-05-03T10:28:41.131Z,99670.22
2023-05-03T10:31:58.150Z,99680.98
2023-05-03T10:35:20.027Z,99682.17
2023-05-03T10:38:37.759Z,99684.50
2023-05-03T10:42:08.918Z,99685.31
2023-05-03T10:45:35.315Z,99684.83
2023-05-03T10:48:56.433Z,99690.67
2023-05-03T10:52:27.536Z,99694.00
2023-05-03T10:55:44.706Z,99688.19
2023-05-03T10:59:06.445Z,99694.18
2023-05-03T11:02:27.182Z,99694.36
2023-05-03T11:05:46.333Z,99687.91
2023-05-03T11:09:08.834Z,99697.41
2023-05-03T11:12:25.336Z,99698.61
2023-05-03T11:15:43.036Z,99696.14
2023-05-03T11:19:05.591Z,99691.51
2023-05-03T11:22:22.646Z,99695.03
2023-05-03T11:25:40.521Z,99687.25
2023-05-03T11:28:57.112Z,99687.11
2023-05-03T11:32:21.127Z,99693.42
2023-05-03T11:35:40.095Z,99697.89
2023-05-03T11:38:59.441Z,99696.05
2023-05-03T11:42:16.792Z,99694.59
2023-05-03T11:45:37.149Z,99696.58
2023-05-03T11:48:56.039Z,99695.94
2023-05-03T11:52:15.554Z,99699.23
2023-05-03T11:55:32.806Z,99702.21
2023-05-03T11:59:01.756Z,99702.56
2023-05-03T12:02:20.637Z,99704.73
2023-05-03T12:05:35.384Z,99702.38
2023-05-03T12:08:52.273Z,99698.88
2023-05-03T12:12:11.220Z,99700.89
2023-05-03T12:15:40.323Z,99697.07
2023-05-03T12:19:02.199Z,99685.27
2023-05-03T12:22:30.582Z,99694.91
2023-05-03T12:25:49.370Z,99695.75
2023-05-03T12:29:06.769Z,99700.22
2023-05-03T12:32:23.629Z,99694.91
2023-05-03T12:35:41.347Z,99686.11
2023-05-03T12:39:01.521Z,99688.59
2023-05-03T12:42:16.351Z,99689.58
2023-05-03T12:45:35.300Z,99695.89
2023-05-03T12:48:54.050Z,99695.89
2023-05-03T12:52:36.231Z,99691.25
2023-05-03T13:05:35.461Z,99686.29
2023-05-03T13:08:50.252Z,99691.26
2023-05-03T13:12:05.767Z,99686.12
2023-05-03T13:15:24.452Z,99683.78
2023-05-03T13:18:40.098Z,99677.47
2023-05-03T13:21:58.318Z,99684.95
2023-05-03T13:25:22.050Z,99686.44
2023-05-03T13:28:38.352Z,99684.13
2023-05-03T13:31:54.987Z,99680.80
2023-05-03T13:35:13.203Z,99686.96
2023-05-03T13:38:29.691Z,99683.13
2023-05-03T13:41:48.203Z,99681.97
2023-05-03T13:45:04.755Z,99684.63
2023-05-03T13:48:21.064Z,99672.82
2023-05-03T13:51:37.598Z,99676.97
2023-05-03T13:54:55.435Z,99679.13
2023-05-03T13:58:11.815Z,99683.63
2023-05-03T14:01:28.191Z,99675.48
2023-05-03T14:04:44.613Z,99675.16
2023-05-03T14:08:01.514Z,99675.48
2023-05-03T14:11:25.613Z,99664.54
2023-05-03T14:14:42.707Z,99675.15
2023-05-03T14:18:01.305Z,99673.66
2023-05-03T14:21:19.390Z,99676.32
2023-05-03T14:24:36.189Z,99679.48
2023-05-03T14:27:52.697Z,99677.45
2023-05-03T14:31:10.724Z,99687.11
2023-05-03T14:34:27.453Z,99681.47
2023-05-03T14:37:43.965Z,99677.30
2023-05-03T14:41:01.427Z,99675.63
2023-05-03T14:44:21.169Z,99674.14
2023-05-03T14:47:49.829Z,99677.63
2023-05-03T14:51:06.525Z,99686.61
2023-05-03T14:54:28.744Z,99687.25
2023-05-03T14:57:46.063Z,99685.95
2023-05-03T15:01:06.183Z,99681.46
2023-05-03T15:04:27.628Z,99685.44
2023-05-03T15:07:50.576Z,99685.11
2023-05-03T15:11:10.485Z,99679.12
2023-05-03T15:14:27.445Z,99682.11
2023-05-03T15:17:47.663Z,99684.42
2023-05-03T15:21:08.376Z,99690.41
2023-05-03T15:24:27.404Z,99681.98
2023-05-03T15:27:45.562Z,99684.28
2023-05-03T15:31:06.671Z,99685.61
2023-05-03T15:34:23.936Z,99696.73
2023-05-03T15:37:46.671Z,99688.08
2023-05-03T15:41:07.834Z,99693.08
2023-05-03T15:44:24.925Z,99683.95
2023-05-03T15:47:42.067Z,99686.45
2023-05-03T15:51:00.883Z,99685.97
2023-05-03T15:54:23.568Z,99685.61
2023-05-03T15:57:42.043Z,99688.11
2023-05-03T16:00:59.880Z,99688.78
2023-05-03T16:04:20.537Z,99680.97
2023-05-03T16:07:39.227Z,99681.47
2023-05-03T16:10:56.719Z,99682.63
2023-05-03T16:14:13.542Z,99672.16
2023-05-03T16:17:32.712Z,99674.80
2023-05-03T16:20:49.578Z,99671.97
2023-05-03T16:24:06.291Z,99679.63
2023-05-03T16:27:24.729Z,99669.31
2023-05-03T16:30:43.457Z,99672.29
2023-05-03T16:34:02.888Z,99672.63
2023-05-03T16:37:17.171Z,99680.78
2023-05-03T16:40:34.363Z,99679.09
2023-05-03T16:43:50.864Z,99681.60
2023-05-03T16:47:09.533Z,99685.92
2023-05-03T16:50:28.410Z,99685.08
2023-05-03T16:53:44.941Z,99685.25
2023-05-03T16:57:03.184Z,99686.23
2023-05-03T17:00:22.790Z,99687.23
2023-05-03T17:03:39.741Z,99676.80
2023-05-03T17:06:57.153Z,99685.08
2023-05-03T17:10:16.032Z,99690.56
2023-05-03T17:13:33.240Z,99686.77
2023-05-03T17:16:52.212Z,99685.25
2023-05-03T17:20:08.787Z,99690.58
2023-05-03T17:23:25.137Z,99695.72
2023-05-03T17:26:42.017Z,99699.54
2023-05-03T17:30:00.351Z,99698.16
2023-05-03T17:33:22.113Z,99711.89
2023-05-03T17:36:42.540Z,99703.76
2023-05-03T17:39:59.802Z,99698.75
2023-05-03T17:43:18.742Z,99709.23
2023-05-03T17:46:35.863Z,99699.78
2023-05-03T17:49:52.747Z,99707.61
2023-05-03T17:53:09.222Z,99704.95
2023-05-03T17:56:27.004Z,99706.76
2023-05-03T17:59:45.092Z,99711.59
2023-05-03T18:03:01.960Z,99707.95
2023-05-03T18:06:21.160Z,99707.74
2023-05-03T18:09:38.078Z,99711.38
2023-05-03T18:12:54.796Z,99710.52
2023-05-03T18:16:13.231Z,99711.50
2023-05-03T18:19:30.326Z,99709.66
2023-05-03T18:22:46.931Z,99714.16
2023-05-03T18:26:04.809Z,99723.45
2023-05-03T18:29:21.197Z,99711.50
2023-05-03T18:32:38.320Z,99718.42
2023-05-03T18:35:58.918Z,99717.48
2023-05-03T18:39:18.848Z,99721.14
2023-05-03T18:42:37.617Z,99723.95
2023-05-03T18:45:54.715Z,99717.28
2023-05-03T18:49:11.597Z,99713.29
2023-05-03T18:52:28.700Z,99713.97
2023-05-03T18:55:45.463Z,99715.94
2023-05-03T18:59:02.030Z,99720.27
2023-05-03T19:02:19.328Z,99719.76
2023-05-03T19:05:36.019Z,99727.06
2023-05-03T19:08:52.655Z,99721.93
2023-05-03T19:12:09.668Z,99717.44
2023-05-03T19:15:26.966Z,99719.76
2023-05-03T19:18:46.973Z,99722.39
2023-05-03T19:22:04.067Z,99720.56
2023-05-03T19:25:22.442Z,99723.72
2023-05-03T19:28:39.056Z,99713.92
2023-05-03T19:31:56.197Z,99716.73
2023-05-03T19:35:14.223Z,99722.86
2023-05-03T19:38:34.802Z,99719.39
2023-05-03T19:41:54.085Z,99708.92
2023-05-03T19:45:13.840Z,99709.08
2023-05-03T19:48:30.227Z,99713.57
2023-05-03T19:51:47.017Z,99706.59
2023-05-03T19:55:06.953Z,99708.28
2023-05-03T19:58:23.757Z,99705.84
2023-05-03T20:01:40.823Z,99713.33
2023-05-03T20:04:57.479Z,99713.17
2023-05-03T20:08:14.220Z,99711.80
2023-05-03T20:11:31.130Z,99707.16
2023-05-03T20:14:47.690Z,99705.45
2023-05-03T20:18:05.364Z,99706.77
2023-05-03T20:21:22.382Z,99705.28
2023-05-03T20:24:39.335Z,99706.65
2023-05-03T20:27:56.971Z,99702.33
2023-05-03T20:31:14.750Z,99703.78
2023-05-03T20:34:31.235Z,99706.27
2023-05-03T20:37:48.080Z,99706.43
2023-05-03T20:41:04.761Z,99704.63
2023-05-03T20:44:21.080Z,99703.78
2023-05-03T20:47:37.517Z,99709.44
2023-05-03T20:50:55.429Z,99708.45
2023-05-03T20:54:12.258Z,99709.60
2023-05-03T20:57:28.659Z,99709.94
2023-05-03T21:00:45.021Z,99710.59
2023-05-03T21:04:01.344Z,99708.56
2023-05-03T21:07:21.619Z,99709.06
2023-05-03T21:10:38.012Z,99698.59
2023-05-03T21:13:54.680Z,99705.56
2023-05-03T21:17:13.289Z,99697.38
2023-05-03T21:20:31.137Z,99704.14
2023-05-03T21:23:47.655Z,99693.53
2023-05-03T21:27:05.614Z,99694.91
2023-05-03T21:30:23.219Z,99695.25
2023-05-03T21:33:40.590Z,99692.73
2023-05-03T21:36:58.376Z,99701.19
2023-05-03T21:40:17.986Z,99689.84
2023-05-03T21:43:35.238Z,99692.10
2023-05-03T21:46:52.040Z,99685.95
2023-05-03T21:50:10.465Z,99693.61
2023-05-03T21:53:27.055Z,99685.66
2023-05-03T21:56:43.374Z,99688.08
2023-05-03T21:59:59.816Z,99691.25
2023-05-03T22:03:16.613Z,99695.41
2023-05-03T22:06:33.321Z,99690.11
2023-05-03T22:09:53.118Z,99695.11
2023-05-03T22:13:09.461Z,99683.83
2023-05-03T22:16:26.365Z,99692.76
2023-05-03T22:19:45.609Z,99678.00
2023-05-03T22:23:01.929Z,99686.28
2023-05-03T22:26:18.434Z,99686.28
2023-05-03T22:29:35.703Z,99691.58
2023-05-03T22:32:52.806Z,99682.13
2023-05-03T22:36:09.395Z,99681.08
2023-05-03T22:39:25.690Z,99676.47
2023-05-03T22:42:41.981Z,99679.77
2023-05-03T22:45:58.321Z,99679.25
2023-05-03T22:49:15.236Z,99679.25
2023-05-03T22:52:31.892Z,99681.44
2023-05-03T22:55:48.854Z,99670.16
2023-05-03T22:59:05.129Z,99667.38
2023-05-03T23:02:21.588Z,99671.36
2023-05-03T23:05:38.449Z,99669.53
2023-05-03T23:08:54.848Z,99666.88
2023-05-03T23:12:12.675Z,99666.75
2023-05-03T23:15:29.163Z,99657.64
2023-05-03T23:18:46.090Z,99663.77
2023-05-03T23:22:02.467Z,99663.25
2023-05-03T23:25:19.708Z,99652.75
2023-05-03T23:28:36.396Z,99666.68
2023-05-03T23:31:53.272Z,99658.11
2023-05-03T23:35:11.283Z,99656.44
2023-05-03T23:38:27.941Z,99651.30
2023-05-03T23:41:44.299Z,99653.79
2023-05-03T23:45:00.740Z,99649.17
2023-05-03T23:48:17.472Z,99649.83
2023-05-03T23:51:35.321Z,99653.84
2023-05-03T23:54:56.915Z,99650.22
2023-05-03T23:58:13.200Z,99648.71
